sensor_id;sensor_type;location;lat;lon;timestamp;temperature;humidity
8780;DHT22;62328;51.19929245;4.42130175;2023-06-24T00:01:20;19.70;99.90
8780;DHT22;62328;51.19929245;4.42130175;2023-06-24T00:03:49;19.80;99.90
8780;DHT22;62328;51.19929245;4.42130175;2023-06-24T00:06:20;19.80;99.90
8780;DHT22;62328;51.19929245;4.42130175;2023-06-24T00:08:48;19.80;99.90
8780;DHT22;62328;51.19929245;4.42130175;2023-06-24T00:11:16;19.70;99.90
8780;DHT22;62328;51.19929245;4.42130175;2023-06-24T00:13:43;19.70;99.90
8780;DHT22;62328;51.19929245;4.42130175;2023-06-24T00:16:11;19.70;99.90
8780;DHT22;62328;51.19929245;4.42130175;2023-06-24T00:18:38;19.70;99.90
8780;DHT22;62328;51.19929245;4.42130175;2023-06-24T00:21:07;19.80;99.90
8780;DHT22;62328;51.19929245;4.42130175;2023-06-24T00:23:36;19.90;99.90
8780;DHT22;62328;51.19929245;4.42130175;2023-06-24T00:26:03;19.80;99.90
8780;DHT22;62328;51.19929245;4.42130175;2023-06-24T00:28:30;19.80;99.90
8780;DHT22;62328;51.19929245;4.42130175;2023-06-24T00:30:58;19.90;99.90
8780;DHT22;62328;51.19929245;4.42130175;2023-06-24T00:33:25;19.90;99.90
8780;DHT22;62328;51.19929245;4.42130175;2023-06-24T00:35:52;19.80;99.90
8780;DHT22;62328;51.19929245;4.42130175;2023-06-24T00:38:20;19.70;99.90
8780;DHT22;62328;51.19929245;4.42130175;2023-06-24T00:40:48;19.60;99.90
8780;DHT22;62328;51.19929245;4.42130175;2023-06-24T00:43:16;19.50;99.90
8780;DHT22;62328;51.19929245;4.42130175;2023-06-24T00:45:43;19.50;99.90
8780;DHT22;62328;51.19929245;4.42130175;2023-06-24T00:48:14;19.30;99.90
8780;DHT22;62328;51.19929245;4.42130175;2023-06-24T00:50:42;19.30;99.90
8780;DHT22;62328;51.19929245;4.42130175;2023-06-24T00:53:11;19.20;99.90
8780;DHT22;62328;51.19929245;4.42130175;2023-06-24T00:55:39;19.10;99.90
8780;DHT22;62328;51.19929245;4.42130175;2023-06-24T00:58:07;19.10;99.90
8780;DHT22;62328;51.19929245;4.42130175;2023-06-24T01:00:35;19.10;99.90
8780;DHT22;62328;51.19929245;4.42130175;2023-06-24T01:03:03;19.10;99.90
8780;DHT22;62328;51.19929245;4.42130175;2023-06-24T01:05:31;19.10;99.90
8780;DHT22;62328;51.19929245;4.42130175;2023-06-24T01:08:01;19.00;99.90
8780;DHT22;62328;51.19929245;4.42130175;2023-06-24T01:10:29;19.00;99.90
8780;DHT22;62328;51.19929245;4.42130175;2023-06-24T01:12:56;19.00;99.90
8780;DHT22;62328;51.19929245;4.42130175;2023-06-24T01:15:25;19.00;99.90
8780;DHT22;62328;51.19929245;4.42130175;2023-06-24T01:17:57;19.00;99.90
8780;DHT22;62328;51.19929245;4.42130175;2023-06-24T01:20:29;19.10;99.90
8780;DHT22;62328;51.19929245;4.42130175;2023-06-24T01:26:40;19.00;99.90
8780;DHT22;62328;51.19929245;4.42130175;2023-06-24T01:29:27;18.90;99.90
8780;DHT22;62328;51.19929245;4.42130175;2023-06-24T01:32:03;19.10;99.90
8780;DHT22;62328;51.19929245;4.42130175;2023-06-24T01:34:34;19.10;99.90
8780;DHT22;62328;51.19929245;4.42130175;2023-06-24T01:37:10;19.10;99.90
8780;DHT22;62328;51.19929245;4.42130175;2023-06-24T01:39:41;19.10;99.90
8780;DHT22;62328;51.19929245;4.42130175;2023-06-24T01:42:11;19.10;99.90
8780;DHT22;62328;51.19929245;4.42130175;2023-06-24T01:44:43;19.10;99.90
8780;DHT22;62328;51.19929245;4.42130175;2023-06-24T01:47:14;19.20;99.90
8780;DHT22;62328;51.19929245;4.42130175;2023-06-24T01:49:44;19.20;99.90
8780;DHT22;62328;51.19929245;4.42130175;2023-06-24T01:52:12;19.10;99.90
8780;DHT22;62328;51.19929245;4.42130175;2023-06-24T01:54:40;19.10;99.90
8780;DHT22;62328;51.19929245;4.42130175;2023-06-24T01:57:09;19.00;99.90
8780;DHT22;62328;51.19929245;4.42130175;2023-06-24T01:59:40;19.00;99.90
8780;DHT22;62328;51.19929245;4.42130175;2023-06-24T02:02:11;18.90;99.90
8780;DHT22;62328;51.19929245;4.42130175;2023-06-24T02:04:39;18.80;99.90
8780;DHT22;62328;51.19929245;4.42130175;2023-06-24T02:07:08;18.80;99.90
8780;DHT22;62328;51.19929245;4.42130175;2023-06-24T02:09:36;18.80;99.90
8780;DHT22;62328;51.19929245;4.42130175;2023-06-24T02:12:06;18.80;99.90
8780;DHT22;62328;51.19929245;4.42130175;2023-06-24T02:14:35;18.80;99.90
8780;DHT22;62328;51.19929245;4.42130175;2023-06-24T02:17:05;18.80;99.90
8780;DHT22;62328;51.19929245;4.42130175;2023-06-24T02:19:35;18.70;99.90
8780;DHT22;62328;51.19929245;4.42130175;2023-06-24T02:22:03;18.70;99.90
8780;DHT22;62328;51.19929245;4.42130175;2023-06-24T02:24:35;18.60;99.90
8780;DHT22;62328;51.19929245;4.42130175;2023-06-24T02:27:04;18.70;99.90
8780;DHT22;62328;51.19929245;4.42130175;2023-06-24T02:29:32;18.50;99.90
8780;DHT22;62328;51.19929245;4.42130175;2023-06-24T02:32:01;18.50;99.90
8780;DHT22;62328;51.19929245;4.42130175;2023-06-24T02:34:28;18.60;99.90
8780;DHT22;62328;51.19929245;4.42130175;2023-06-24T02:36:57;18.60;99.90
8780;DHT22;62328;51.19929245;4.42130175;2023-06-24T02:39:24;18.50;99.90
8780;DHT22;62328;51.19929245;4.42130175;2023-06-24T02:41:51;18.50;99.90
8780;DHT22;62328;51.19929245;4.42130175;2023-06-24T02:44:19;18.50;99.90
8780;DHT22;62328;51.19929245;4.42130175;2023-06-24T02:46:46;18.50;99.90
8780;DHT22;62328;51.19929245;4.42130175;2023-06-24T02:49:16;18.40;99.90
8780;DHT22;62328;51.19929245;4.42130175;2023-06-24T02:51:44;18.30;99.90
8780;DHT22;62328;51.19929245;4.42130175;2023-06-24T02:54:13;18.30;99.90
8780;DHT22;62328;51.19929245;4.42130175;2023-06-24T02:56:41;18.30;99.90
8780;DHT22;62328;51.19929245;4.42130175;2023-06-24T02:59:10;18.40;99.90
8780;DHT22;62328;51.19929245;4.42130175;2023-06-24T03:01:38;18.40;99.90
8780;DHT22;62328;51.19929245;4.42130175;2023-06-24T03:04:10;18.30;99.90
8780;DHT22;62328;51.19929245;4.42130175;2023-06-24T03:06:38;18.40;99.90
8780;DHT22;62328;51.19929245;4.42130175;2023-06-24T03:09:06;18.50;99.90
8780;DHT22;62328;51.19929245;4.42130175;2023-06-24T03:11:41;18.30;99.90
8780;DHT22;62328;51.19929245;4.42130175;2023-06-24T03:14:09;18.30;99.90
8780;DHT22;62328;51.19929245;4.42130175;2023-06-24T03:16:36;18.30;99.90
8780;DHT22;62328;51.19929245;4.42130175;2023-06-24T03:19:04;18.30;99.90
8780;DHT22;62328;51.19929245;4.42130175;2023-06-24T03:21:31;18.30;99.90
8780;DHT22;62328;51.19929245;4.42130175;2023-06-24T03:23:59;18.30;99.90
8780;DHT22;62328;51.19929245;4.42130175;2023-06-24T03:26:31;18.20;99.90
8780;DHT22;62328;51.19929245;4.42130175;2023-06-24T03:29:00;18.20;99.90
8780;DHT22;62328;51.19929245;4.42130175;2023-06-24T03:31:27;18.20;99.90
8780;DHT22;62328;51.19929245;4.42130175;2023-06-24T03:33:54;18.20;99.90
8780;DHT22;62328;51.19929245;4.42130175;2023-06-24T03:36:22;18.10;99.90
8780;DHT22;62328;51.19929245;4.42130175;2023-06-24T03:38:52;18.20;99.90
8780;DHT22;62328;51.19929245;4.42130175;2023-06-24T03:41:19;18.30;99.90
8780;DHT22;62328;51.19929245;4.42130175;2023-06-24T03:43:47;18.30;99.90
8780;DHT22;62328;51.19929245;4.42130175;2023-06-24T03:46:15;18.30;99.90
8780;DHT22;62328;51.19929245;4.42130175;2023-06-24T03:48:43;18.30;99.90
8780;DHT22;62328;51.19929245;4.42130175;2023-06-24T03:51:10;18.20;99.90
8780;DHT22;62328;51.19929245;4.42130175;2023-06-24T03:53:37;18.10;99.90
8780;DHT22;62328;51.19929245;4.42130175;2023-06-24T03:56:04;18.20;99.90
8780;DHT22;62328;51.19929245;4.42130175;2023-06-24T03:58:31;18.10;99.90
8780;DHT22;62328;51.19929245;4.42130175;2023-06-24T04:01:02;18.10;99.90
8780;DHT22;62328;51.19929245;4.42130175;2023-06-24T04:03:32;18.10;99.90
8780;DHT22;62328;51.19929245;4.42130175;2023-06-24T04:06:00;18.10;99.90
8780;DHT22;62328;51.19929245;4.42130175;2023-06-24T04:08:27;18.00;99.90
8780;DHT22;62328;51.19929245;4.42130175;2023-06-24T04:10:56;18.10;99.90
8780;DHT22;62328;51.19929245;4.42130175;2023-06-24T04:13:23;18.10;99.90
8780;DHT22;62328;51.19929245;4.42130175;2023-06-24T04:15:51;18.10;99.90
8780;DHT22;62328;51.19929245;4.42130175;2023-06-24T04:18:19;18.30;99.90
8780;DHT22;62328;51.19929245;4.42130175;2023-06-24T04:20:48;18.10;99.90
8780;DHT22;62328;51.19929245;4.42130175;2023-06-24T04:23:15;18.10;99.90
8780;DHT22;62328;51.19929245;4.42130175;2023-06-24T04:25:42;18.20;99.90
8780;DHT22;62328;51.19929245;4.42130175;2023-06-24T04:28:09;18.20;99.90
8780;DHT22;62328;51.19929245;4.42130175;2023-06-24T04:30:36;18.10;99.90
8780;DHT22;62328;51.19929245;4.42130175;2023-06-24T04:33:04;18.10;99.90
8780;DHT22;62328;51.19929245;4.42130175;2023-06-24T04:35:31;18.10;99.90
8780;DHT22;62328;51.19929245;4.42130175;2023-06-24T04:38:00;18.10;99.90
8780;DHT22;62328;51.19929245;4.42130175;2023-06-24T04:40:28;18.10;99.90
8780;DHT22;62328;51.19929245;4.42130175;2023-06-24T04:42:56;18.10;99.90
8780;DHT22;62328;51.19929245;4.42130175;2023-06-24T04:45:23;18.10;99.90
8780;DHT22;62328;51.19929245;4.42130175;2023-06-24T04:47:50;18.10;99.90
8780;DHT22;62328;51.19929245;4.42130175;2023-06-24T04:50:18;18.10;99.90
8780;DHT22;62328;51.19929245;4.42130175;2023-06-24T04:52:51;18.10;99.90
8780;DHT22;62328;51.19929245;4.42130175;2023-06-24T04:55:20;18.10;99.90
8780;DHT22;62328;51.19929245;4.42130175;2023-06-24T04:57:48;18.00;99.90
8780;DHT22;62328;51.19929245;4.42130175;2023-06-24T05:00:15;18.00;99.90
8780;DHT22;62328;51.19929245;4.42130175;2023-06-24T05:02:42;18.10;99.90
8780;DHT22;62328;51.19929245;4.42130175;2023-06-24T05:05:11;18.00;99.90
8780;DHT22;62328;51.19929245;4.42130175;2023-06-24T05:07:38;18.00;99.90
8780;DHT22;62328;51.19929245;4.42130175;2023-06-24T05:10:06;18.00;99.90
8780;DHT22;62328;51.19929245;4.42130175;2023-06-24T05:12:35;18.00;99.90
8780;DHT22;62328;51.19929245;4.42130175;2023-06-24T05:15:02;18.10;99.90
8780;DHT22;62328;51.19929245;4.42130175;2023-06-24T05:17:30;18.10;99.90
8780;DHT22;62328;51.19929245;4.42130175;2023-06-24T05:19:57;18.10;99.90
8780;DHT22;62328;51.19929245;4.42130175;2023-06-24T05:22:24;18.10;99.90
8780;DHT22;62328;51.19929245;4.42130175;2023-06-24T05:24:51;18.10;99.90
8780;DHT22;62328;51.19929245;4.42130175;2023-06-24T05:27:19;18.20;99.90
8780;DHT22;62328;51.19929245;4.42130175;2023-06-24T05:29:49;18.20;99.90
8780;DHT22;62328;51.19929245;4.42130175;2023-06-24T05:32:16;18.20;99.90
8780;DHT22;62328;51.19929245;4.42130175;2023-06-24T05:34:46;18.30;99.90
8780;DHT22;62328;51.19929245;4.42130175;2023-06-24T05:37:13;18.20;99.90
8780;DHT22;62328;51.19929245;4.42130175;2023-06-24T05:39:40;18.30;99.90
8780;DHT22;62328;51.19929245;4.42130175;2023-06-24T05:42:08;18.30;99.90
8780;DHT22;62328;51.19929245;4.42130175;2023-06-24T05:44:35;18.30;99.90
8780;DHT22;62328;51.19929245;4.42130175;2023-06-24T05:47:03;18.30;99.90
8780;DHT22;62328;51.19929245;4.42130175;2023-06-24T05:49:31;18.40;99.90
8780;DHT22;62328;51.19929245;4.42130175;2023-06-24T05:51:58;18.40;99.90
8780;DHT22;62328;51.19929245;4.42130175;2023-06-24T05:54:25;18.50;99.90
8780;DHT22;62328;51.19929245;4.42130175;2023-06-24T05:56:53;18.50;99.90
8780;DHT22;62328;51.19929245;4.42130175;2023-06-24T05:59:21;18.50;99.90
8780;DHT22;62328;51.19929245;4.42130175;2023-06-24T06:01:48;18.50;99.90
8780;DHT22;62328;51.19929245;4.42130175;2023-06-24T06:04:17;18.60;99.90
8780;DHT22;62328;51.19929245;4.42130175;2023-06-24T06:06:44;18.60;99.90
8780;DHT22;62328;51.19929245;4.42130175;2023-06-24T06:09:11;18.50;99.90
8780;DHT22;62328;51.19929245;4.42130175;2023-06-24T06:11:38;18.50;99.90
8780;DHT22;62328;51.19929245;4.42130175;2023-06-24T06:14:06;18.70;99.90
8780;DHT22;62328;51.19929245;4.42130175;2023-06-24T06:16:33;18.70;99.90
8780;DHT22;62328;51.19929245;4.42130175;2023-06-24T06:19:00;18.80;99.90
8780;DHT22;62328;51.19929245;4.42130175;2023-06-24T06:21:28;18.80;99.90
8780;DHT22;62328;51.19929245;4.42130175;2023-06-24T06:23:55;18.80;99.90
8780;DHT22;62328;51.19929245;4.42130175;2023-06-24T06:26:22;18.80;99.90
8780;DHT22;62328;51.19929245;4.42130175;2023-06-24T06:28:50;18.80;99.90
8780;DHT22;62328;51.19929245;4.42130175;2023-06-24T06:31:19;18.90;99.90
8780;DHT22;62328;51.19929245;4.42130175;2023-06-24T06:33:46;18.90;99.90
8780;DHT22;62328;51.19929245;4.42130175;2023-06-24T06:36:14;18.90;99.90
8780;DHT22;62328;51.19929245;4.42130175;2023-06-24T06:38:42;19.00;99.90
8780;DHT22;62328;51.19929245;4.42130175;2023-06-24T06:41:09;19.10;99.90
8780;DHT22;62328;51.19929245;4.42130175;2023-06-24T06:43:36;19.10;99.90
8780;DHT22;62328;51.19929245;4.42130175;2023-06-24T06:46:03;19.10;99.90
8780;DHT22;62328;51.19929245;4.42130175;2023-06-24T06:48:30;19.10;99.90
8780;DHT22;62328;51.19929245;4.42130175;2023-06-24T06:50:57;19.10;99.90
8780;DHT22;62328;51.19929245;4.42130175;2023-06-24T06:53:24;19.10;99.90
8780;DHT22;62328;51.19929245;4.42130175;2023-06-24T06:55:53;19.20;99.90
8780;DHT22;62328;51.19929245;4.42130175;2023-06-24T06:58:20;19.30;99.90
8780;DHT22;62328;51.19929245;4.42130175;2023-06-24T07:00:47;19.30;99.90
8780;DHT22;62328;51.19929245;4.42130175;2023-06-24T07:03:14;19.40;99.90
8780;DHT22;62328;51.19929245;4.42130175;2023-06-24T07:05:41;19.40;99.90
8780;DHT22;62328;51.19929245;4.42130175;2023-06-24T07:08:08;19.40;99.90
8780;DHT22;62328;51.19929245;4.42130175;2023-06-24T07:10:35;19.40;99.90
8780;DHT22;62328;51.19929245;4.42130175;2023-06-24T07:13:04;19.60;99.90
8780;DHT22;62328;51.19929245;4.42130175;2023-06-24T07:15:32;19.60;99.90
8780;DHT22;62328;51.19929245;4.42130175;2023-06-24T07:17:59;19.70;99.90
8780;DHT22;62328;51.19929245;4.42130175;2023-06-24T07:20:26;19.90;99.90
8780;DHT22;62328;51.19929245;4.42130175;2023-06-24T07:22:53;19.80;99.90
8780;DHT22;62328;51.19929245;4.42130175;2023-06-24T07:25:20;19.80;99.90
8780;DHT22;62328;51.19929245;4.42130175;2023-06-24T07:27:47;19.90;99.90
8780;DHT22;62328;51.19929245;4.42130175;2023-06-24T07:30:16;19.90;99.90
8780;DHT22;62328;51.19929245;4.42130175;2023-06-24T07:32:43;20.00;99.90
8780;DHT22;62328;51.19929245;4.42130175;2023-06-24T07:35:10;20.00;99.90
8780;DHT22;62328;51.19929245;4.42130175;2023-06-24T07:37:37;20.10;99.90
8780;DHT22;62328;51.19929245;4.42130175;2023-06-24T07:40:08;20.10;99.90
8780;DHT22;62328;51.19929245;4.42130175;2023-06-24T07:42:35;20.20;99.90
8780;DHT22;62328;51.19929245;4.42130175;2023-06-24T07:45:03;20.20;99.90
8780;DHT22;62328;51.19929245;4.42130175;2023-06-24T07:47:32;20.30;99.90
8780;DHT22;62328;51.19929245;4.42130175;2023-06-24T07:49:59;20.50;99.90
8780;DHT22;62328;51.19929245;4.42130175;2023-06-24T07:52:27;20.50;99.90
8780;DHT22;62328;51.19929245;4.42130175;2023-06-24T07:54:54;20.70;99.90
8780;DHT22;62328;51.19929245;4.42130175;2023-06-24T07:57:22;20.80;99.90
8780;DHT22;62328;51.19929245;4.42130175;2023-06-24T07:59:49;20.80;99.90
8780;DHT22;62328;51.19929245;4.42130175;2023-06-24T08:02:16;21.00;99.90
8780;DHT22;62328;51.19929245;4.42130175;2023-06-24T08:04:45;21.00;99.90
8780;DHT22;62328;51.19929245;4.42130175;2023-06-24T08:07:12;21.00;99.90
8780;DHT22;62328;51.19929245;4.42130175;2023-06-24T08:09:41;21.10;99.90
8780;DHT22;62328;51.19929245;4.42130175;2023-06-24T08:12:09;21.10;99.90
8780;DHT22;62328;51.19929245;4.42130175;2023-06-24T08:14:36;21.20;99.90
8780;DHT22;62328;51.19929245;4.42130175;2023-06-24T08:17:04;21.20;99.90
8780;DHT22;62328;51.19929245;4.42130175;2023-06-24T08:19:33;21.30;99.90
8780;DHT22;62328;51.19929245;4.42130175;2023-06-24T08:22:02;21.30;99.90
8780;DHT22;62328;51.19929245;4.42130175;2023-06-24T08:24:31;21.40;99.90
8780;DHT22;62328;51.19929245;4.42130175;2023-06-24T08:26:59;21.40;99.90
8780;DHT22;62328;51.19929245;4.42130175;2023-06-24T08:29:26;21.50;99.90
8780;DHT22;62328;51.19929245;4.42130175;2023-06-24T08:31:53;21.50;99.90
8780;DHT22;62328;51.19929245;4.42130175;2023-06-24T08:34:20;21.60;99.90
8780;DHT22;62328;51.19929245;4.42130175;2023-06-24T08:36:48;21.70;99.90
8780;DHT22;62328;51.19929245;4.42130175;2023-06-24T08:39:17;21.80;99.90
8780;DHT22;62328;51.19929245;4.42130175;2023-06-24T08:41:44;21.80;99.90
8780;DHT22;62328;51.19929245;4.42130175;2023-06-24T08:44:11;21.90;99.90
8780;DHT22;62328;51.19929245;4.42130175;2023-06-24T08:46:39;22.00;99.90
8780;DHT22;62328;51.19929245;4.42130175;2023-06-24T08:49:14;22.00;99.90
8780;DHT22;62328;51.19929245;4.42130175;2023-06-24T08:51:47;22.10;99.90
8780;DHT22;62328;51.19929245;4.42130175;2023-06-24T08:54:20;22.10;99.90
8780;DHT22;62328;51.19929245;4.42130175;2023-06-24T08:56:48;22.10;99.90
8780;DHT22;62328;51.19929245;4.42130175;2023-06-24T08:59:16;22.20;99.90
8780;DHT22;62328;51.19929245;4.42130175;2023-06-24T09:01:45;22.20;99.90
8780;DHT22;62328;51.19929245;4.42130175;2023-06-24T09:04:12;22.40;99.90
8780;DHT22;62328;51.19929245;4.42130175;2023-06-24T09:06:39;22.40;99.90
8780;DHT22;62328;51.19929245;4.42130175;2023-06-24T09:09:18;22.50;99.90
8780;DHT22;62328;51.19929245;4.42130175;2023-06-24T09:11:54;22.80;99.90
8780;DHT22;62328;51.19929245;4.42130175;2023-06-24T09:14:21;22.90;99.90
8780;DHT22;62328;51.19929245;4.42130175;2023-06-24T09:16:53;22.80;99.90
8780;DHT22;62328;51.19929245;4.42130175;2023-06-24T09:19:21;22.80;99.90
8780;DHT22;62328;51.19929245;4.42130175;2023-06-24T09:21:49;22.80;99.90
8780;DHT22;62328;51.19929245;4.42130175;2023-06-24T09:24:19;23.00;99.90
8780;DHT22;62328;51.19929245;4.42130175;2023-06-24T09:26:46;23.10;99.90
8780;DHT22;62328;51.19929245;4.42130175;2023-06-24T09:29:13;23.10;99.90
8780;DHT22;62328;51.19929245;4.42130175;2023-06-24T09:31:48;23.30;99.90
8780;DHT22;62328;51.19929245;4.42130175;2023-06-24T09:34:19;23.30;99.90
8780;DHT22;62328;51.19929245;4.42130175;2023-06-24T09:36:51;23.40;99.90
8780;DHT22;62328;51.19929245;4.42130175;2023-06-24T09:39:20;23.50;99.90
8780;DHT22;62328;51.19929245;4.42130175;2023-06-24T09:41:54;23.60;99.90
8780;DHT22;62328;51.19929245;4.42130175;2023-06-24T09:44:21;23.60;99.90
8780;DHT22;62328;51.19929245;4.42130175;2023-06-24T09:46:48;23.70;99.90
8780;DHT22;62328;51.19929245;4.42130175;2023-06-24T09:49:16;23.70;99.90
8780;DHT22;62328;51.19929245;4.42130175;2023-06-24T09:51:45;23.80;99.90
8780;DHT22;62328;51.19929245;4.42130175;2023-06-24T09:54:13;23.80;99.90
8780;DHT22;62328;51.19929245;4.42130175;2023-06-24T09:56:45;23.80;99.90
8780;DHT22;62328;51.19929245;4.42130175;2023-06-24T09:59:15;23.70;99.90
8780;DHT22;62328;51.19929245;4.42130175;2023-06-24T10:01:47;23.80;99.90
8780;DHT22;62328;51.19929245;4.42130175;2023-06-24T10:04:16;23.90;99.90
8780;DHT22;62328;51.19929245;4.42130175;2023-06-24T10:06:44;24.00;99.90
8780;DHT22;62328;51.19929245;4.42130175;2023-06-24T10:09:11;24.00;99.90
8780;DHT22;62328;51.19929245;4.42130175;2023-06-24T10:11:45;24.20;99.90
8780;DHT22;62328;51.19929245;4.42130175;2023-06-24T10:14:12;24.10;99.90
8780;DHT22;62328;51.19929245;4.42130175;2023-06-24T10:16:40;24.30;99.90
8780;DHT22;62328;51.19929245;4.42130175;2023-06-24T10:19:08;24.30;99.90
8780;DHT22;62328;51.19929245;4.42130175;2023-06-24T10:21:45;24.30;99.90
8780;DHT22;62328;51.19929245;4.42130175;2023-06-24T10:24:13;24.30;99.90
8780;DHT22;62328;51.19929245;4.42130175;2023-06-24T10:26:59;24.30;99.90
8780;DHT22;62328;51.19929245;4.42130175;2023-06-24T10:29:34;24.30;99.90
8780;DHT22;62328;51.19929245;4.42130175;2023-06-24T10:32:06;24.30;99.90
8780;DHT22;62328;51.19929245;4.42130175;2023-06-24T10:34:39;24.40;99.90
8780;DHT22;62328;51.19929245;4.42130175;2023-06-24T10:37:10;24.60;99.90
8780;DHT22;62328;51.19929245;4.42130175;2023-06-24T10:39:51;24.60;99.90
8780;DHT22;62328;51.19929245;4.42130175;2023-06-24T10:42:38;24.60;99.90
8780;DHT22;62328;51.19929245;4.42130175;2023-06-24T10:45:16;24.60;99.90
8780;DHT22;62328;51.19929245;4.42130175;2023-06-24T10:47:44;24.70;99.90
8780;DHT22;62328;51.19929245;4.42130175;2023-06-24T10:50:13;24.90;99.90
8780;DHT22;62328;51.19929245;4.42130175;2023-06-24T10:52:42;24.90;99.90
8780;DHT22;62328;51.19929245;4.42130175;2023-06-24T10:55:09;24.90;99.90
8780;DHT22;62328;51.19929245;4.42130175;2023-06-24T10:57:38;25.10;99.90
8780;DHT22;62328;51.19929245;4.42130175;2023-06-24T11:00:06;25.10;99.90
8780;DHT22;62328;51.19929245;4.42130175;2023-06-24T11:02:34;25.30;99.90
8780;DHT22;62328;51.19929245;4.42130175;2023-06-24T11:05:03;25.40;99.90
8780;DHT22;62328;51.19929245;4.42130175;2023-06-24T11:07:31;25.30;99.90
8780;DHT22;62328;51.19929245;4.42130175;2023-06-24T11:10:02;25.30;99.90
8780;DHT22;62328;51.19929245;4.42130175;2023-06-24T11:12:31;25.40;99.90
8780;DHT22;62328;51.19929245;4.42130175;2023-06-24T11:15:01;25.40;99.90
8780;DHT22;62328;51.19929245;4.42130175;2023-06-24T11:17:28;25.40;99.90
8780;DHT22;62328;51.19929245;4.42130175;2023-06-24T11:19:56;25.40;99.90
8780;DHT22;62328;51.19929245;4.42130175;2023-06-24T11:22:23;25.50;99.90
8780;DHT22;62328;51.19929245;4.42130175;2023-06-24T11:24:51;25.50;99.90
8780;DHT22;62328;51.19929245;4.42130175;2023-06-24T11:27:24;25.50;99.90
8780;DHT22;62328;51.19929245;4.42130175;2023-06-24T11:29:53;25.60;99.90
8780;DHT22;62328;51.19929245;4.42130175;2023-06-24T11:32:22;25.60;99.90
8780;DHT22;62328;51.19929245;4.42130175;2023-06-24T11:34:50;25.70;99.90
8780;DHT22;62328;51.19929245;4.42130175;2023-06-24T11:37:18;25.70;99.90
8780;DHT22;62328;51.19929245;4.42130175;2023-06-24T11:40:00;25.80;99.90
8780;DHT22;62328;51.19929245;4.42130175;2023-06-24T11:42:30;25.90;99.90
8780;DHT22;62328;51.19929245;4.42130175;2023-06-24T11:45:01;26.00;99.90
8780;DHT22;62328;51.19929245;4.42130175;2023-06-24T11:47:32;26.10;99.90
8780;DHT22;62328;51.19929245;4.42130175;2023-06-24T11:50:01;26.20;99.90
8780;DHT22;62328;51.19929245;4.42130175;2023-06-24T11:52:39;26.30;99.90
8780;DHT22;62328;51.19929245;4.42130175;2023-06-24T11:55:16;26.50;99.90
8780;DHT22;62328;51.19929245;4.42130175;2023-06-24T11:57:54;26.60;99.90
8780;DHT22;62328;51.19929245;4.42130175;2023-06-24T12:00:24;26.70;99.90
8780;DHT22;62328;51.19929245;4.42130175;2023-06-24T12:02:55;26.80;99.90
8780;DHT22;62328;51.19929245;4.42130175;2023-06-24T12:05:24;26.80;99.90
8780;DHT22;62328;51.19929245;4.42130175;2023-06-24T12:08:01;26.90;99.90
8780;DHT22;62328;51.19929245;4.42130175;2023-06-24T12:10:30;26.90;99.90
8780;DHT22;62328;51.19929245;4.42130175;2023-06-24T12:12:59;27.00;99.90
8780;DHT22;62328;51.19929245;4.42130175;2023-06-24T12:15:27;27.10;99.90
8780;DHT22;62328;51.19929245;4.42130175;2023-06-24T12:17:56;27.20;99.90
8780;DHT22;62328;51.19929245;4.42130175;2023-06-24T12:20:25;27.30;99.90
8780;DHT22;62328;51.19929245;4.42130175;2023-06-24T12:22:52;27.40;99.90
8780;DHT22;62328;51.19929245;4.42130175;2023-06-24T12:25:21;27.50;99.90
8780;DHT22;62328;51.19929245;4.42130175;2023-06-24T12:27:49;27.50;99.90
8780;DHT22;62328;51.19929245;4.42130175;2023-06-24T12:30:16;27.50;99.90
8780;DHT22;62328;51.19929245;4.42130175;2023-06-24T12:32:44;27.50;99.90
8780;DHT22;62328;51.19929245;4.42130175;2023-06-24T12:35:13;27.60;99.90
8780;DHT22;62328;51.19929245;4.42130175;2023-06-24T12:37:40;27.70;99.90
8780;DHT22;62328;51.19929245;4.42130175;2023-06-24T12:40:08;27.90;99.90
8780;DHT22;62328;51.19929245;4.42130175;2023-06-24T12:42:35;28.00;99.90
8780;DHT22;62328;51.19929245;4.42130175;2023-06-24T12:45:04;28.00;99.90
8780;DHT22;62328;51.19929245;4.42130175;2023-06-24T12:47:32;28.00;99.90
8780;DHT22;62328;51.19929245;4.42130175;2023-06-24T12:49:59;28.10;99.90
8780;DHT22;62328;51.19929245;4.42130175;2023-06-24T12:52:28;28.20;99.90
8780;DHT22;62328;51.19929245;4.42130175;2023-06-24T12:54:56;28.40;99.90
8780;DHT22;62328;51.19929245;4.42130175;2023-06-24T12:57:23;28.50;99.90
8780;DHT22;62328;51.19929245;4.42130175;2023-06-24T12:59:51;28.50;99.90
8780;DHT22;62328;51.19929245;4.42130175;2023-06-24T13:02:18;28.60;99.90
8780;DHT22;62328;51.19929245;4.42130175;2023-06-24T13:04:47;28.70;99.90
8780;DHT22;62328;51.19929245;4.42130175;2023-06-24T13:07:14;28.90;99.90
8780;DHT22;62328;51.19929245;4.42130175;2023-06-24T13:09:43;29.00;99.90
8780;DHT22;62328;51.19929245;4.42130175;2023-06-24T13:12:11;29.10;99.90
8780;DHT22;62328;51.19929245;4.42130175;2023-06-24T13:14:39;29.10;99.90
8780;DHT22;62328;51.19929245;4.42130175;2023-06-24T13:17:06;29.20;99.90
8780;DHT22;62328;51.19929245;4.42130175;2023-06-24T13:19:34;29.30;99.90
8780;DHT22;62328;51.19929245;4.42130175;2023-06-24T13:22:01;29.40;99.90
8780;DHT22;62328;51.19929245;4.42130175;2023-06-24T13:24:29;29.60;99.90
8780;DHT22;62328;51.19929245;4.42130175;2023-06-24T13:26:58;29.70;99.90
8780;DHT22;62328;51.19929245;4.42130175;2023-06-24T13:29:26;29.70;99.90
8780;DHT22;62328;51.19929245;4.42130175;2023-06-24T13:31:54;29.80;99.90
8780;DHT22;62328;51.19929245;4.42130175;2023-06-24T13:34:21;29.90;99.90
8780;DHT22;62328;51.19929245;4.42130175;2023-06-24T13:36:49;30.00;99.90
8780;DHT22;62328;51.19929245;4.42130175;2023-06-24T13:39:17;30.00;99.90
8780;DHT22;62328;51.19929245;4.42130175;2023-06-24T13:41:45;30.30;99.90
8780;DHT22;62328;51.19929245;4.42130175;2023-06-24T13:44:14;30.40;99.90
8780;DHT22;62328;51.19929245;4.42130175;2023-06-24T13:46:41;30.50;99.90